TFM - Tactical Decision Aid
ID: Runway Winds: CIG/VIS Threshold:

KPHX - Phoenix/Sky Harbor, AZ, US

Updated at: 1811 UTC 19 Aug 2019
Latest TAF at: 1734 UTC 19 Aug 2019

TAF Board

Time1751Z 19/19Z 19/20Z 19/21Z 19/22Z 19/23Z 20/00Z 20/01Z 20/02Z 20/03Z 20/04Z 20/05Z 20/06Z 20/07Z>>
Type OBS PRVL PRVL PRVL PRVL PRVL PRVL PRVL PRVL PRVL PRVL PRVL PRVL PRVL
VIS 10 >6 >6 >6 >6 >6 >6 >6 >6 >6 >6 >6 >6 >6
CIG -- -- -- -- -- -- -- -- -- -- -- -- -- --
Cover FEW SKC SKC SKC SKC SKC SKC SKC SKC SKC SKC SKC SKC SKC
FltCat VFR VFR VFR VFR VFR VFR VFR VFR VFR VFR VFR VFR VFR VFR
WX -- -- -- -- -- -- -- -- -- -- -- -- -- --
WDir 80 VRB VRB VRB 270 270 270 270 270 270 270 270 VRB VRB
WSpd 3 5 5 5 6 6 6 6 6 6 6 6 5 5
WGst -- -- -- -- -- -- -- -- -- -- -- -- -- --

TDA Impact Legend

  None Marginal Slight Moderate High
Visibility (sm) >5 3≤X≤5 1.25≤X<3 0.5≤X<1.25 <0.5
Ceiling (100 ft) >30 10≤X≤30 4≤X<10 2≤X<4 <2
Wind Speed (kt) <15 15≤X<25 25≤X<30 ≥30
Wind Gust (kt) <15 15≤X<25 25≤X<35 ≥35
Weather No Wx Reported VCTS -TS,-FZRA TS,FZRA +TS,+FZRA
TAF
KPHX 191734Z 1918/2024 VRB05KT P6SM SKC
  FM192200 27006KT P6SM SKC
  FM200600 VRB05KT P6SM SKC
  FM201200 10004KT P6SM FEW140
  FM201600 VRB05KT P6SM FEW140


METAR
KPHX 191751Z 08003KT 10SM FEW120 37/07 A2990 RMK AO2 SLP102 T03670067 10367 20272 50002
KPHX 191651Z 10004KT 10SM FEW120 35/09 A2990 RMK AO2 SLP104 T03500094
KPHX 191551Z VRB04KT 10SM FEW150 33/08 A2990 RMK AO2 SLP103 T03280078
KPHX 191451Z 10005KT 10SM FEW150 31/08 A2989 RMK AO2 SLP101 T03060078 51016

Radar Display
Forecast Discussion